sensor_id;sensor_type;location;lat;lon;timestamp;temperature;humidity
11387;DHT22;5748;53.102;8.456;2023-06-22T00:01:19;23.90;55.50
11387;DHT22;5748;53.102;8.456;2023-06-22T00:03:47;21.90;54.00
11387;DHT22;5748;53.102;8.456;2023-06-22T00:06:14;21.80;53.90
11387;DHT22;5748;53.102;8.456;2023-06-22T00:08:42;21.80;53.90
11387;DHT22;5748;53.102;8.456;2023-06-22T00:11:10;22.50;54.70
11387;DHT22;5748;53.102;8.456;2023-06-22T00:13:37;21.80;54.10
11387;DHT22;5748;53.102;8.456;2023-06-22T00:16:04;21.70;54.00
11387;DHT22;5748;53.102;8.456;2023-06-22T00:18:31;21.70;54.00
11387;DHT22;5748;53.102;8.456;2023-06-22T00:20:59;21.70;54.00
11387;DHT22;5748;53.102;8.456;2023-06-22T00:23:27;21.70;54.20
11387;DHT22;5748;53.102;8.456;2023-06-22T00:25:55;21.70;54.30
11387;DHT22;5748;53.102;8.456;2023-06-22T00:28:22;22.90;55.40
11387;DHT22;5748;53.102;8.456;2023-06-22T00:30:49;21.60;54.20
11387;DHT22;5748;53.102;8.456;2023-06-22T00:33:16;21.60;54.20
11387;DHT22;5748;53.102;8.456;2023-06-22T00:35:43;21.70;54.30
11387;DHT22;5748;53.102;8.456;2023-06-22T00:38:10;23.80;56.20
11387;DHT22;5748;53.102;8.456;2023-06-22T00:40:37;21.60;54.40
11387;DHT22;5748;53.102;8.456;2023-06-22T00:43:06;21.60;54.40
11387;DHT22;5748;53.102;8.456;2023-06-22T00:45:33;21.60;54.50
11387;DHT22;5748;53.102;8.456;2023-06-22T00:48:00;21.60;54.50
11387;DHT22;5748;53.102;8.456;2023-06-22T00:50:30;21.60;54.70
11387;DHT22;5748;53.102;8.456;2023-06-22T00:53:00;21.50;54.60
11387;DHT22;5748;53.102;8.456;2023-06-22T00:55:33;21.50;54.70
11387;DHT22;5748;53.102;8.456;2023-06-22T00:58:02;21.50;54.80
11387;DHT22;5748;53.102;8.456;2023-06-22T01:00:34;21.50;54.80
11387;DHT22;5748;53.102;8.456;2023-06-22T01:03:02;21.50;55.00
11387;DHT22;5748;53.102;8.456;2023-06-22T01:05:29;21.50;55.00
11387;DHT22;5748;53.102;8.456;2023-06-22T01:08:07;21.40;55.00
11387;DHT22;5748;53.102;8.456;2023-06-22T01:10:43;21.40;55.40
11387;DHT22;5748;53.102;8.456;2023-06-22T01:13:18;21.40;55.20
11387;DHT22;5748;53.102;8.456;2023-06-22T01:15:57;21.40;55.30
11387;DHT22;5748;53.102;8.456;2023-06-22T01:18:28;21.40;55.30
11387;DHT22;5748;53.102;8.456;2023-06-22T01:20:57;21.40;55.20
11387;DHT22;5748;53.102;8.456;2023-06-22T01:23:33;21.40;55.10
11387;DHT22;5748;53.102;8.456;2023-06-22T01:26:14;21.30;55.40
11387;DHT22;5748;53.102;8.456;2023-06-22T01:28:47;21.30;55.40
11387;DHT22;5748;53.102;8.456;2023-06-22T01:31:18;21.30;55.30
11387;DHT22;5748;53.102;8.456;2023-06-22T01:33:49;21.20;55.20
11387;DHT22;5748;53.102;8.456;2023-06-22T01:36:19;21.20;55.30
11387;DHT22;5748;53.102;8.456;2023-06-22T01:38:47;21.20;55.20
11387;DHT22;5748;53.102;8.456;2023-06-22T01:41:15;21.10;55.10
11387;DHT22;5748;53.102;8.456;2023-06-22T01:43:43;21.10;55.20
11387;DHT22;5748;53.102;8.456;2023-06-22T01:46:13;21.10;55.20
11387;DHT22;5748;53.102;8.456;2023-06-22T01:48:40;21.00;55.10
11387;DHT22;5748;53.102;8.456;2023-06-22T01:51:08;21.00;55.10
11387;DHT22;5748;53.102;8.456;2023-06-22T01:53:35;21.00;55.10
11387;DHT22;5748;53.102;8.456;2023-06-22T01:56:02;21.00;55.20
11387;DHT22;5748;53.102;8.456;2023-06-22T01:58:30;20.90;55.20
11387;DHT22;5748;53.102;8.456;2023-06-22T02:01:05;20.90;55.30
11387;DHT22;5748;53.102;8.456;2023-06-22T02:03:40;20.90;55.60
11387;DHT22;5748;53.102;8.456;2023-06-22T02:06:15;20.90;55.50
11387;DHT22;5748;53.102;8.456;2023-06-22T02:08:48;20.80;55.60
11387;DHT22;5748;53.102;8.456;2023-06-22T02:11:18;20.80;55.50
11387;DHT22;5748;53.102;8.456;2023-06-22T02:13:46;20.70;55.40
11387;DHT22;5748;53.102;8.456;2023-06-22T02:16:16;20.80;55.50
11387;DHT22;5748;53.102;8.456;2023-06-22T02:18:46;20.70;55.50
11387;DHT22;5748;53.102;8.456;2023-06-22T02:21:16;20.70;55.70
11387;DHT22;5748;53.102;8.456;2023-06-22T02:23:43;20.60;55.50
11387;DHT22;5748;53.102;8.456;2023-06-22T02:26:10;20.60;55.50
11387;DHT22;5748;53.102;8.456;2023-06-22T02:28:37;20.60;55.60
11387;DHT22;5748;53.102;8.456;2023-06-22T02:31:04;20.40;55.30
11387;DHT22;5748;53.102;8.456;2023-06-22T02:33:32;20.50;55.50
11387;DHT22;5748;53.102;8.456;2023-06-22T02:35:59;20.50;55.60
11387;DHT22;5748;53.102;8.456;2023-06-22T02:38:30;20.50;55.60
11387;DHT22;5748;53.102;8.456;2023-06-22T02:40:59;20.40;55.60
11387;DHT22;5748;53.102;8.456;2023-06-22T02:43:26;20.30;55.40
11387;DHT22;5748;53.102;8.456;2023-06-22T02:45:53;20.30;55.50
11387;DHT22;5748;53.102;8.456;2023-06-22T02:48:20;20.30;55.60
11387;DHT22;5748;53.102;8.456;2023-06-22T02:50:49;20.30;55.60
11387;DHT22;5748;53.102;8.456;2023-06-22T02:53:16;20.30;55.70
11387;DHT22;5748;53.102;8.456;2023-06-22T02:55:42;20.20;55.70
11387;DHT22;5748;53.102;8.456;2023-06-22T02:58:09;20.20;55.60
11387;DHT22;5748;53.102;8.456;2023-06-22T03:00:36;20.20;55.70
11387;DHT22;5748;53.102;8.456;2023-06-22T03:03:04;20.20;55.90
11387;DHT22;5748;53.102;8.456;2023-06-22T03:05:31;20.20;56.00
11387;DHT22;5748;53.102;8.456;2023-06-22T03:08:02;20.10;55.90
11387;DHT22;5748;53.102;8.456;2023-06-22T03:10:29;20.10;56.00
11387;DHT22;5748;53.102;8.456;2023-06-22T03:12:56;20.10;56.00
11387;DHT22;5748;53.102;8.456;2023-06-22T03:15:22;20.10;56.10
11387;DHT22;5748;53.102;8.456;2023-06-22T03:17:51;20.10;56.10
11387;DHT22;5748;53.102;8.456;2023-06-22T03:20:17;20.10;56.20
11387;DHT22;5748;53.102;8.456;2023-06-22T03:22:44;20.10;56.20
11387;DHT22;5748;53.102;8.456;2023-06-22T03:25:13;21.20;57.20
11387;DHT22;5748;53.102;8.456;2023-06-22T03:27:40;20.10;56.40
11387;DHT22;5748;53.102;8.456;2023-06-22T03:30:09;20.10;56.40
11387;DHT22;5748;53.102;8.456;2023-06-22T03:32:37;20.00;56.50
11387;DHT22;5748;53.102;8.456;2023-06-22T03:35:05;20.10;56.60
11387;DHT22;5748;53.102;8.456;2023-06-22T03:37:32;20.10;56.80
11387;DHT22;5748;53.102;8.456;2023-06-22T03:39:59;20.10;56.80
11387;DHT22;5748;53.102;8.456;2023-06-22T03:42:27;20.60;57.20
11387;DHT22;5748;53.102;8.456;2023-06-22T03:44:54;20.10;56.90
11387;DHT22;5748;53.102;8.456;2023-06-22T03:47:22;20.80;57.50
11387;DHT22;5748;53.102;8.456;2023-06-22T03:49:49;20.10;57.00
11387;DHT22;5748;53.102;8.456;2023-06-22T03:52:20;20.10;57.00
11387;DHT22;5748;53.102;8.456;2023-06-22T03:54:48;22.00;58.60
11387;DHT22;5748;53.102;8.456;2023-06-22T03:57:15;20.10;57.10
11387;DHT22;5748;53.102;8.456;2023-06-22T03:59:43;20.10;57.10
11387;DHT22;5748;53.102;8.456;2023-06-22T04:02:10;20.10;57.20
11387;DHT22;5748;53.102;8.456;2023-06-22T04:04:37;20.20;57.20
11387;DHT22;5748;53.102;8.456;2023-06-22T04:07:05;20.20;57.30
11387;DHT22;5748;53.102;8.456;2023-06-22T04:09:32;20.20;57.40
11387;DHT22;5748;53.102;8.456;2023-06-22T04:11:59;20.30;57.50
11387;DHT22;5748;53.102;8.456;2023-06-22T04:14:26;20.30;57.50
11387;DHT22;5748;53.102;8.456;2023-06-22T04:16:54;20.30;57.60
11387;DHT22;5748;53.102;8.456;2023-06-22T04:19:21;20.30;57.70
11387;DHT22;5748;53.102;8.456;2023-06-22T04:21:48;20.40;57.70
11387;DHT22;5748;53.102;8.456;2023-06-22T04:24:15;20.40;57.80
11387;DHT22;5748;53.102;8.456;2023-06-22T04:26:42;20.50;57.90
11387;DHT22;5748;53.102;8.456;2023-06-22T04:29:11;20.50;57.90
11387;DHT22;5748;53.102;8.456;2023-06-22T04:31:38;20.60;58.10
11387;DHT22;5748;53.102;8.456;2023-06-22T04:34:07;20.60;58.20
11387;DHT22;5748;53.102;8.456;2023-06-22T04:36:35;20.70;58.50
11387;DHT22;5748;53.102;8.456;2023-06-22T04:39:07;20.70;58.40
11387;DHT22;5748;53.102;8.456;2023-06-22T04:41:35;20.70;58.70
11387;DHT22;5748;53.102;8.456;2023-06-22T04:44:11;20.80;58.60
11387;DHT22;5748;53.102;8.456;2023-06-22T04:46:39;20.80;58.80
11387;DHT22;5748;53.102;8.456;2023-06-22T04:49:08;20.90;58.90
11387;DHT22;5748;53.102;8.456;2023-06-22T04:51:39;21.00;59.00
11387;DHT22;5748;53.102;8.456;2023-06-22T04:54:07;21.00;59.00
11387;DHT22;5748;53.102;8.456;2023-06-22T04:56:34;21.10;59.00
11387;DHT22;5748;53.102;8.456;2023-06-22T04:59:02;21.20;59.10
11387;DHT22;5748;53.102;8.456;2023-06-22T05:01:29;21.30;59.10
11387;DHT22;5748;53.102;8.456;2023-06-22T05:03:57;21.30;59.00
11387;DHT22;5748;53.102;8.456;2023-06-22T05:06:28;21.40;59.10
11387;DHT22;5748;53.102;8.456;2023-06-22T05:08:55;21.50;59.20
11387;DHT22;5748;53.102;8.456;2023-06-22T05:11:24;21.60;59.30
11387;DHT22;5748;53.102;8.456;2023-06-22T05:13:51;21.80;59.50
11387;DHT22;5748;53.102;8.456;2023-06-22T05:16:18;21.80;59.40
11387;DHT22;5748;53.102;8.456;2023-06-22T05:18:49;21.90;59.60
11387;DHT22;5748;53.102;8.456;2023-06-22T05:21:18;21.90;59.40
11387;DHT22;5748;53.102;8.456;2023-06-22T05:23:46;22.10;59.30
11387;DHT22;5748;53.102;8.456;2023-06-22T05:26:13;22.20;59.30
11387;DHT22;5748;53.102;8.456;2023-06-22T05:28:40;22.30;59.30
11387;DHT22;5748;53.102;8.456;2023-06-22T05:31:11;22.40;59.30
11387;DHT22;5748;53.102;8.456;2023-06-22T05:33:39;22.50;59.20
11387;DHT22;5748;53.102;8.456;2023-06-22T05:36:06;22.60;59.20
11387;DHT22;5748;53.102;8.456;2023-06-22T05:38:33;22.70;59.20
11387;DHT22;5748;53.102;8.456;2023-06-22T05:41:01;22.80;59.10
11387;DHT22;5748;53.102;8.456;2023-06-22T05:43:28;22.90;59.10
11387;DHT22;5748;53.102;8.456;2023-06-22T05:45:55;23.00;59.00
11387;DHT22;5748;53.102;8.456;2023-06-22T05:48:22;23.00;58.80
11387;DHT22;5748;53.102;8.456;2023-06-22T05:50:48;23.10;58.80
11387;DHT22;5748;53.102;8.456;2023-06-22T05:53:15;23.20;58.80
11387;DHT22;5748;53.102;8.456;2023-06-22T05:55:42;23.30;58.90
11387;DHT22;5748;53.102;8.456;2023-06-22T05:58:11;23.30;59.00
11387;DHT22;5748;53.102;8.456;2023-06-22T06:00:38;23.40;58.90
11387;DHT22;5748;53.102;8.456;2023-06-22T06:03:06;23.50;59.00
11387;DHT22;5748;53.102;8.456;2023-06-22T06:05:34;23.60;59.20
11387;DHT22;5748;53.102;8.456;2023-06-22T06:08:01;23.70;59.40
11387;DHT22;5748;53.102;8.456;2023-06-22T06:10:30;23.90;60.00
11387;DHT22;5748;53.102;8.456;2023-06-22T06:12:58;24.30;60.70
11387;DHT22;5748;53.102;8.456;2023-06-22T06:15:29;24.70;61.00
11387;DHT22;5748;53.102;8.456;2023-06-22T06:17:55;25.10;61.20
11387;DHT22;5748;53.102;8.456;2023-06-22T06:20:23;25.50;61.20
11387;DHT22;5748;53.102;8.456;2023-06-22T06:22:51;26.00;61.20
11387;DHT22;5748;53.102;8.456;2023-06-22T06:25:18;26.60;61.20
11387;DHT22;5748;53.102;8.456;2023-06-22T06:27:47;27.10;60.90
11387;DHT22;5748;53.102;8.456;2023-06-22T06:30:16;27.60;60.50
11387;DHT22;5748;53.102;8.456;2023-06-22T06:32:46;28.10;59.90
11387;DHT22;5748;53.102;8.456;2023-06-22T06:35:14;28.60;59.50
11387;DHT22;5748;53.102;8.456;2023-06-22T06:37:43;29.10;59.10
11387;DHT22;5748;53.102;8.456;2023-06-22T06:40:12;29.50;58.40
11387;DHT22;5748;53.102;8.456;2023-06-22T06:42:41;30.00;58.00
11387;DHT22;5748;53.102;8.456;2023-06-22T06:45:11;30.20;57.40
11387;DHT22;5748;53.102;8.456;2023-06-22T06:47:38;30.60;57.10
11387;DHT22;5748;53.102;8.456;2023-06-22T06:50:07;30.90;56.70
11387;DHT22;5748;53.102;8.456;2023-06-22T06:52:35;31.30;56.40
11387;DHT22;5748;53.102;8.456;2023-06-22T06:55:03;31.60;56.30
11387;DHT22;5748;53.102;8.456;2023-06-22T06:57:33;32.10;56.80
11387;DHT22;5748;53.102;8.456;2023-06-22T07:00:00;32.40;55.80
11387;DHT22;5748;53.102;8.456;2023-06-22T07:02:31;32.80;55.40
11387;DHT22;5748;53.102;8.456;2023-06-22T07:04:58;33.10;54.90
11387;DHT22;5748;53.102;8.456;2023-06-22T07:07:27;33.50;54.70
11387;DHT22;5748;53.102;8.456;2023-06-22T07:09:53;33.90;54.00
11387;DHT22;5748;53.102;8.456;2023-06-22T07:12:20;34.20;53.60
11387;DHT22;5748;53.102;8.456;2023-06-22T07:14:47;34.40;52.90
11387;DHT22;5748;53.102;8.456;2023-06-22T07:17:14;34.60;52.00
11387;DHT22;5748;53.102;8.456;2023-06-22T07:19:41;34.60;51.20
11387;DHT22;5748;53.102;8.456;2023-06-22T07:22:08;34.60;50.70
11387;DHT22;5748;53.102;8.456;2023-06-22T07:24:36;34.40;50.20
11387;DHT22;5748;53.102;8.456;2023-06-22T07:27:04;34.10;49.80
11387;DHT22;5748;53.102;8.456;2023-06-22T07:29:32;33.90;49.90
11387;DHT22;5748;53.102;8.456;2023-06-22T07:31:59;33.60;49.90
11387;DHT22;5748;53.102;8.456;2023-06-22T07:34:26;33.30;50.00
11387;DHT22;5748;53.102;8.456;2023-06-22T07:36:53;33.00;50.00
11387;DHT22;5748;53.102;8.456;2023-06-22T07:39:20;32.80;50.30
11387;DHT22;5748;53.102;8.456;2023-06-22T07:41:52;32.60;50.60
11387;DHT22;5748;53.102;8.456;2023-06-22T07:44:19;32.40;51.00
11387;DHT22;5748;53.102;8.456;2023-06-22T07:46:46;32.30;51.80
11387;DHT22;5748;53.102;8.456;2023-06-22T07:49:13;32.40;52.50
11387;DHT22;5748;53.102;8.456;2023-06-22T07:51:40;32.70;53.30
11387;DHT22;5748;53.102;8.456;2023-06-22T07:54:08;33.00;53.60
11387;DHT22;5748;53.102;8.456;2023-06-22T07:56:36;33.60;54.00
11387;DHT22;5748;53.102;8.456;2023-06-22T07:59:04;34.10;53.60
11387;DHT22;5748;53.102;8.456;2023-06-22T08:01:31;34.80;53.20
11387;DHT22;5748;53.102;8.456;2023-06-22T08:03:58;35.40;52.80
11387;DHT22;5748;53.102;8.456;2023-06-22T08:06:25;36.00;52.50
11387;DHT22;5748;53.102;8.456;2023-06-22T08:08:52;36.60;52.00
11387;DHT22;5748;53.102;8.456;2023-06-22T08:11:20;37.20;51.60
11387;DHT22;5748;53.102;8.456;2023-06-22T08:13:49;37.80;50.90
11387;DHT22;5748;53.102;8.456;2023-06-22T08:16:17;38.40;50.10
11387;DHT22;5748;53.102;8.456;2023-06-22T08:18:44;38.90;49.30
11387;DHT22;5748;53.102;8.456;2023-06-22T08:21:11;39.30;48.90
11387;DHT22;5748;53.102;8.456;2023-06-22T08:23:38;39.80;48.30
11387;DHT22;5748;53.102;8.456;2023-06-22T08:26:04;40.20;47.70
11387;DHT22;5748;53.102;8.456;2023-06-22T08:28:31;40.70;47.10
11387;DHT22;5748;53.102;8.456;2023-06-22T08:31:00;41.00;46.40
11387;DHT22;5748;53.102;8.456;2023-06-22T08:33:29;41.20;45.10
11387;DHT22;5748;53.102;8.456;2023-06-22T08:35:57;41.20;43.90
11387;DHT22;5748;53.102;8.456;2023-06-22T08:38:25;41.00;43.40
11387;DHT22;5748;53.102;8.456;2023-06-22T08:40:52;40.70;42.80
11387;DHT22;5748;53.102;8.456;2023-06-22T08:43:18;40.30;42.40
11387;DHT22;5748;53.102;8.456;2023-06-22T08:45:46;39.80;42.30
11387;DHT22;5748;53.102;8.456;2023-06-22T08:48:13;39.40;42.40
11387;DHT22;5748;53.102;8.456;2023-06-22T08:50:41;39.00;42.40
11387;DHT22;5748;53.102;8.456;2023-06-22T08:53:08;38.60;42.30
11387;DHT22;5748;53.102;8.456;2023-06-22T08:55:35;38.30;42.90
11387;DHT22;5748;53.102;8.456;2023-06-22T08:58:02;38.00;43.40
11387;DHT22;5748;53.102;8.456;2023-06-22T09:00:30;37.70;44.00
11387;DHT22;5748;53.102;8.456;2023-06-22T09:03:00;37.70;44.40
11387;DHT22;5748;53.102;8.456;2023-06-22T09:05:27;37.80;45.00
11387;DHT22;5748;53.102;8.456;2023-06-22T09:07:56;38.00;45.50
11387;DHT22;5748;53.102;8.456;2023-06-22T09:10:24;38.40;45.10
11387;DHT22;5748;53.102;8.456;2023-06-22T09:12:50;38.70;45.00
11387;DHT22;5748;53.102;8.456;2023-06-22T09:15:18;39.00;44.80
11387;DHT22;5748;53.102;8.456;2023-06-22T09:17:45;39.30;44.20
11387;DHT22;5748;53.102;8.456;2023-06-22T09:20:12;39.60;44.40
11387;DHT22;5748;53.102;8.456;2023-06-22T09:22:40;39.80;43.20
11387;DHT22;5748;53.102;8.456;2023-06-22T09:25:09;39.90;43.60
11387;DHT22;5748;53.102;8.456;2023-06-22T09:27:36;40.10;43.20
11387;DHT22;5748;53.102;8.456;2023-06-22T09:30:04;40.50;43.50
11387;DHT22;5748;53.102;8.456;2023-06-22T09:32:32;40.90;43.20
11387;DHT22;5748;53.102;8.456;2023-06-22T09:35:02;41.20;42.80
11387;DHT22;5748;53.102;8.456;2023-06-22T09:37:31;41.50;42.40
11387;DHT22;5748;53.102;8.456;2023-06-22T09:39:58;41.70;41.60
11387;DHT22;5748;53.102;8.456;2023-06-22T09:42:27;42.00;40.70
11387;DHT22;5748;53.102;8.456;2023-06-22T09:44:53;42.10;41.00
11387;DHT22;5748;53.102;8.456;2023-06-22T09:47:20;42.30;41.20
11387;DHT22;5748;53.102;8.456;2023-06-22T09:49:47;42.60;41.10
11387;DHT22;5748;53.102;8.456;2023-06-22T09:52:14;42.90;41.00
11387;DHT22;5748;53.102;8.456;2023-06-22T09:54:41;43.30;40.70
11387;DHT22;5748;53.102;8.456;2023-06-22T09:57:08;43.60;40.20
11387;DHT22;5748;53.102;8.456;2023-06-22T09:59:38;43.90;39.80
11387;DHT22;5748;53.102;8.456;2023-06-22T10:02:05;44.10;38.50
11387;DHT22;5748;53.102;8.456;2023-06-22T10:04:33;44.10;38.10
11387;DHT22;5748;53.102;8.456;2023-06-22T10:07:00;44.10;37.90
11387;DHT22;5748;53.102;8.456;2023-06-22T10:09:27;44.00;37.90
11387;DHT22;5748;53.102;8.456;2023-06-22T10:11:54;44.00;37.80
11387;DHT22;5748;53.102;8.456;2023-06-22T10:14:21;44.10;37.70
11387;DHT22;5748;53.102;8.456;2023-06-22T10:16:49;44.20;37.70
11387;DHT22;5748;53.102;8.456;2023-06-22T10:19:17;44.30;37.50
11387;DHT22;5748;53.102;8.456;2023-06-22T10:21:44;44.50;37.50
11387;DHT22;5748;53.102;8.456;2023-06-22T10:24:11;44.70;37.50
11387;DHT22;5748;53.102;8.456;2023-06-22T10:26:38;44.80;37.00
11387;DHT22;5748;53.102;8.456;2023-06-22T10:29:05;44.90;36.50
11387;DHT22;5748;53.102;8.456;2023-06-22T10:31:32;44.90;36.10
11387;DHT22;5748;53.102;8.456;2023-06-22T10:34:00;44.80;35.40
11387;DHT22;5748;53.102;8.456;2023-06-22T10:36:27;44.60;34.60
11387;DHT22;5748;53.102;8.456;2023-06-22T10:38:54;44.20;34.20
11387;DHT22;5748;53.102;8.456;2023-06-22T10:41:24;43.80;34.20
11387;DHT22;5748;53.102;8.456;2023-06-22T10:43:50;43.30;34.40
11387;DHT22;5748;53.102;8.456;2023-06-22T10:46:17;42.80;34.30
11387;DHT22;5748;53.102;8.456;2023-06-22T10:48:44;42.50;34.50
11387;DHT22;5748;53.102;8.456;2023-06-22T10:51:12;42.20;34.80
11387;DHT22;5748;53.102;8.456;2023-06-22T10:53:39;41.90;34.70
11387;DHT22;5748;53.102;8.456;2023-06-22T10:56:06;41.50;34.70
11387;DHT22;5748;53.102;8.456;2023-06-22T10:58:33;41.30;34.80
11387;DHT22;5748;53.102;8.456;2023-06-22T11:01:00;41.00;35.20
11387;DHT22;5748;53.102;8.456;2023-06-22T11:03:28;40.80;35.60
11387;DHT22;5748;53.102;8.456;2023-06-22T11:05:55;40.70;35.90
11387;DHT22;5748;53.102;8.456;2023-06-22T11:08:23;40.70;36.10
11387;DHT22;5748;53.102;8.456;2023-06-22T11:10:51;40.60;35.70
11387;DHT22;5748;53.102;8.456;2023-06-22T11:13:18;40.50;35.40
11387;DHT22;5748;53.102;8.456;2023-06-22T11:15:45;40.40;35.60
11387;DHT22;5748;53.102;8.456;2023-06-22T11:18:12;40.30;35.90
11387;DHT22;5748;53.102;8.456;2023-06-22T11:20:39;40.20;36.20
11387;DHT22;5748;53.102;8.456;2023-06-22T11:23:06;40.20;36.40
11387;DHT22;5748;53.102;8.456;2023-06-22T11:25:34;40.30;36.70
11387;DHT22;5748;53.102;8.456;2023-06-22T11:28:04;40.60;37.10
11387;DHT22;5748;53.102;8.456;2023-06-22T11:30:31;40.90;37.40
11387;DHT22;5748;53.102;8.456;2023-06-22T11:32:59;41.30;37.60
11387;DHT22;5748;53.102;8.456;2023-06-22T11:35:26;41.70;37.30
11387;DHT22;5748;53.102;8.456;2023-06-22T11:37:53;42.10;36.70
11387;DHT22;5748;53.102;8.456;2023-06-22T11:40:21;42.30;36.00
11387;DHT22;5748;53.102;8.456;2023-06-22T11:42:49;42.50;35.60
11387;DHT22;5748;53.102;8.456;2023-06-22T11:45:16;42.60;35.00
11387;DHT22;5748;53.102;8.456;2023-06-22T11:47:44;42.60;34.70
11387;DHT22;5748;53.102;8.456;2023-06-22T11:50:11;42.40;34.10
11387;DHT22;5748;53.102;8.456;2023-06-22T11:52:38;42.20;33.80
11387;DHT22;5748;53.102;8.456;2023-06-22T11:55:06;41.90;33.50
11387;DHT22;5748;53.102;8.456;2023-06-22T11:57:33;41.50;33.50
11387;DHT22;5748;53.102;8.456;2023-06-22T12:00:03;41.10;33.40
11387;DHT22;5748;53.102;8.456;2023-06-22T12:02:40;40.70;33.30
11387;DHT22;5748;53.102;8.456;2023-06-22T12:05:07;40.30;33.60
11387;DHT22;5748;53.102;8.456;2023-06-22T12:07:34;39.90;33.70
11387;DHT22;5748;53.102;8.456;2023-06-22T12:10:01;39.60;33.70
11387;DHT22;5748;53.102;8.456;2023-06-22T12:12:28;39.20;33.80
11387;DHT22;5748;53.102;8.456;2023-06-22T12:14:55;38.90;34.00
11387;DHT22;5748;53.102;8.456;2023-06-22T12:17:24;38.60;34.30
11387;DHT22;5748;53.102;8.456;2023-06-22T12:19:50;38.30;34.60
11387;DHT22;5748;53.102;8.456;2023-06-22T12:22:17;37.90;34.60
11387;DHT22;5748;53.102;8.456;2023-06-22T12:24:44;37.70;34.70
11387;DHT22;5748;53.102;8.456;2023-06-22T12:27:11;37.40;34.90
11387;DHT22;5748;53.102;8.456;2023-06-22T12:29:38;37.20;35.10
11387;DHT22;5748;53.102;8.456;2023-06-22T12:32:06;36.90;35.10
11387;DHT22;5748;53.102;8.456;2023-06-22T12:34:35;36.70;35.30
11387;DHT22;5748;53.102;8.456;2023-06-22T12:37:02;36.40;35.40
11387;DHT22;5748;53.102;8.456;2023-06-22T12:39:29;36.30;35.60
11387;DHT22;5748;53.102;8.456;2023-06-22T12:41:56;36.10;35.80
11387;DHT22;5748;53.102;8.456;2023-06-22T12:44:23;35.90;35.90
11387;DHT22;5748;53.102;8.456;2023-06-22T12:46:50;35.80;36.10
11387;DHT22;5748;53.102;8.456;2023-06-22T12:49:17;35.60;36.30
11387;DHT22;5748;53.102;8.456;2023-06-22T12:51:45;35.40;36.30
11387;DHT22;5748;53.102;8.456;2023-06-22T12:54:12;35.30;36.40
11387;DHT22;5748;53.102;8.456;2023-06-22T12:56:39;35.20;36.60
11387;DHT22;5748;53.102;8.456;2023-06-22T12:59:06;35.10;36.80
11387;DHT22;5748;53.102;8.456;2023-06-22T13:01:33;35.00;36.80
11387;DHT22;5748;53.102;8.456;2023-06-22T13:03:59;34.80;37.10
11387;DHT22;5748;53.102;8.456;2023-06-22T13:06:26;34.80;37.20
11387;DHT22;5748;53.102;8.456;2023-06-22T13:08:55;35.00;37.40
11387;DHT22;5748;53.102;8.456;2023-06-22T13:11:22;34.60;37.40
11387;DHT22;5748;53.102;8.456;2023-06-22T13:13:48;34.50;37.50
11387;DHT22;5748;53.102;8.456;2023-06-22T13:16:15;34.40;37.60
11387;DHT22;5748;53.102;8.456;2023-06-22T13:18:42;34.30;37.70
11387;DHT22;5748;53.102;8.456;2023-06-22T13:21:09;34.30;37.90
11387;DHT22;5748;53.102;8.456;2023-06-22T13:23:36;34.30;38.10
11387;DHT22;5748;53.102;8.456;2023-06-22T13:26:04;34.20;38.20
11387;DHT22;5748;53.102;8.456;2023-06-22T13:28:31;34.20;38.30
11387;DHT22;5748;53.102;8.456;2023-06-22T13:30:58;34.20;38.50
11387;DHT22;5748;53.102;8.456;2023-06-22T13:33:25;34.10;38.50
11387;DHT22;5748;53.102;8.456;2023-06-22T13:35:52;34.10;38.60
11387;DHT22;5748;53.102;8.456;2023-06-22T13:38:19;34.00;38.50
11387;DHT22;5748;53.102;8.456;2023-06-22T13:40:46;34.00;38.50
11387;DHT22;5748;53.102;8.456;2023-06-22T13:43:15;33.90;38.50
11387;DHT22;5748;53.102;8.456;2023-06-22T13:45:43;33.80;38.60
11387;DHT22;5748;53.102;8.456;2023-06-22T13:48:10;33.80;38.60
11387;DHT22;5748;53.102;8.456;2023-06-22T13:50:37;33.70;38.70
11387;DHT22;5748;53.102;8.456;2023-06-22T13:53:04;33.70;38.80
11387;DHT22;5748;53.102;8.456;2023-06-22T13:55:30;33.70;38.80
11387;DHT22;5748;53.102;8.456;2023-06-22T13:57:57;33.50;38.80
11387;DHT22;5748;53.102;8.456;2023-06-22T14:00:25;33.50;38.90
11387;DHT22;5748;53.102;8.456;2023-06-22T14:02:53;33.40;38.90
11387;DHT22;5748;53.102;8.456;2023-06-22T14:05:20;33.40;38.90
11387;DHT22;5748;53.102;8.456;2023-06-22T14:07:47;33.30;39.00
11387;DHT22;5748;53.102;8.456;2023-06-22T14:10:14;33.20;39.10
11387;DHT22;5748;53.102;8.456;2023-06-22T14:12:41;33.10;39.10
11387;DHT22;5748;53.102;8.456;2023-06-22T14:15:08;33.00;39.20
11387;DHT22;5748;53.102;8.456;2023-06-22T14:17:36;32.90;39.30
11387;DHT22;5748;53.102;8.456;2023-06-22T14:20:04;32.80;39.30
11387;DHT22;5748;53.102;8.456;2023-06-22T14:22:33;32.70;39.40
11387;DHT22;5748;53.102;8.456;2023-06-22T14:25:01;32.70;39.50
11387;DHT22;5748;53.102;8.456;2023-06-22T14:27:28;32.60;39.70
11387;DHT22;5748;53.102;8.456;2023-06-22T14:29:56;32.50;39.80
11387;DHT22;5748;53.102;8.456;2023-06-22T14:32:22;32.50;39.90
11387;DHT22;5748;53.102;8.456;2023-06-22T14:34:51;32.40;40.00
11387;DHT22;5748;53.102;8.456;2023-06-22T14:37:18;32.30;40.30
11387;DHT22;5748;53.102;8.456;2023-06-22T14:39:45;32.20;40.20
11387;DHT22;5748;53.102;8.456;2023-06-22T14:42:12;32.20;40.50
11387;DHT22;5748;53.102;8.456;2023-06-22T14:44:39;32.10;40.60
11387;DHT22;5748;53.102;8.456;2023-06-22T14:47:07;32.10;40.80
11387;DHT22;5748;53.102;8.456;2023-06-22T14:49:34;32.00;41.10
11387;DHT22;5748;53.102;8.456;2023-06-22T14:52:04;31.90;41.20
11387;DHT22;5748;53.102;8.456;2023-06-22T14:54:31;31.80;41.30
11387;DHT22;5748;53.102;8.456;2023-06-22T14:56:58;31.90;41.30
11387;DHT22;5748;53.102;8.456;2023-06-22T14:59:25;31.70;41.30
11387;DHT22;5748;53.102;8.456;2023-06-22T15:01:52;31.60;41.50
11387;DHT22;5748;53.102;8.456;2023-06-22T15:04:19;31.60;41.70
11387;DHT22;5748;53.102;8.456;2023-06-22T15:06:46;31.60;42.00
11387;DHT22;5748;53.102;8.456;2023-06-22T15:09:14;31.50;42.20
11387;DHT22;5748;53.102;8.456;2023-06-22T15:11:41;31.50;42.40
11387;DHT22;5748;53.102;8.456;2023-06-22T15:14:08;31.50;42.50
11387;DHT22;5748;53.102;8.456;2023-06-22T15:16:35;31.40;42.60
11387;DHT22;5748;53.102;8.456;2023-06-22T15:19:01;31.40;42.70
11387;DHT22;5748;53.102;8.456;2023-06-22T15:21:28;31.30;42.90
11387;DHT22;5748;53.102;8.456;2023-06-22T15:23:57;31.30;42.90
11387;DHT22;5748;53.102;8.456;2023-06-22T15:26:25;31.20;43.20
11387;DHT22;5748;53.102;8.456;2023-06-22T15:28:52;31.10;43.20
11387;DHT22;5748;53.102;8.456;2023-06-22T15:31:20;31.10;43.40
11387;DHT22;5748;53.102;8.456;2023-06-22T15:33:47;31.00;43.50
11387;DHT22;5748;53.102;8.456;2023-06-22T15:36:14;31.00;43.60
11387;DHT22;5748;53.102;8.456;2023-06-22T15:38:41;30.90;43.70
11387;DHT22;5748;53.102;8.456;2023-06-22T15:41:08;30.80;43.90
11387;DHT22;5748;53.102;8.456;2023-06-22T15:43:36;30.70;44.10
11387;DHT22;5748;53.102;8.456;2023-06-22T15:46:03;30.60;44.40
11387;DHT22;5748;53.102;8.456;2023-06-22T15:48:30;30.50;44.60